Time;durP1;ratioP1;P1;durP2;ratioP2;P2;SDS_P1;SDS_P2;PMS_P1;PMS_P2;Temp;Humidity;BMP_temperature;BMP_pressure;BME280_temperature;BME280_humidity;BME280_pressure;Samples;Min_cycle;Max_cycle;Signal;HPM_P1;HPM_P2
2021/01/12 10:30:06;;;;;;;13.63;5.50;;;8.30;99.90;;;;;;5997730;22;21430;-86
2021/01/12 15:01:00;;;;;;;5.83;1.50;;;7.60;99.90;;;;;;5017841;28;20215;-86
2021/01/12 15:15:01;;;;;;;5.53;1.50;;;7.00;99.90;;;;;;5029891;23;20312;-85
2021/01/12 15:17:41;;;;;;;3.80;1.60;;;7.10;99.90;;;;;;5248807;22;20240;-85
2021/01/12 15:20:48;;;;;;;3.87;1.73;;;7.10;99.90;;;;;;5178255;23;20240;-85
2021/01/12 15:23:51;;;;;;;5.33;1.43;;;7.20;99.90;;;;;;5018798;28;20208;-87
2021/01/12 15:37:56;;;;;;;6.63;1.60;;;7.30;99.90;;;;;;4987387;28;20231;-86
2021/01/12 16:30:30;;;;;;;6.50;1.80;;;6.50;99.90;;;;;;5619903;22;20220;-83
2021/01/12 16:33:34;;;;;;;9.80;2.30;;;6.50;99.90;;;;;;5015912;28;20193;-85
2021/01/12 16:36:41;;;;;;;9.27;1.70;;;6.50;99.90;;;;;;5078320;22;20224;-86
2021/01/12 16:39:39;;;;;;;7.93;1.80;;;6.50;99.90;;;;;;4993748;28;20256;-86
2021/01/12 16:45:22;;;;;;;9.73;2.80;;;6.40;99.90;;;;;;5137813;22;20243;-85
2021/01/12 16:50:22;;;;;;;6.17;1.73;;;6.20;99.90;;;;;;5023719;23;20308;-84
2021/01/12 16:59:19;;;;;;;7.87;2.00;;;6.20;99.90;;;;;;5109361;23;20246;-86
2021/01/12 17:02:06;;;;;;;8.40;2.17;;;6.30;99.90;;;;;;5020932;28;20198;-86
2021/01/12 17:04:42;;;;;;;6.40;2.37;;;6.40;99.90;;;;;;5021235;28;20205;-85
2021/01/12 17:24:58;;;;;;;9.97;3.33;;;5.70;99.90;;;;;;5000733;28;20216;-86
2021/01/12 17:31:05;;;;;;;6.50;2.73;;;5.70;99.90;;;;;;5019305;28;20243;-85
2021/01/12 17:33:56;;;;;;;12.57;3.03;;;5.80;99.90;;;;;;5048955;23;20235;-86
2021/01/12 17:36:31;;;;;;;11.40;3.73;;;5.90;99.90;;;;;;5078165;22;20243;-85
2021/01/12 17:42:07;;;;;;;9.20;3.00;;;5.80;99.90;;;;;;5120376;22;20248;-85
2021/01/12 17:44:39;;;;;;;9.70;3.33;;;5.80;99.90;;;;;;5005769;23;20247;-85
2021/01/12 17:47:24;;;;;;;9.87;2.70;;;5.70;99.90;;;;;;5011368;28;20485;-85
2021/01/12 17:53:10;;;;;;;8.03;2.57;;;5.60;99.90;;;;;;5019712;28;20264;-85
2021/01/12 17:58:55;;;;;;;10.03;3.00;;;5.40;99.90;;;;;;5050351;22;20367;-85
2021/01/12 18:01:58;;;;;;;5.97;2.73;;;5.40;99.90;;;;;;4990748;28;20206;-86
2021/01/12 18:04:59;;;;;;;4.80;2.83;;;5.30;99.90;;;;;;5051734;23;20219;-86
2021/01/12 18:07:28;;;;;;;7.37;3.30;;;5.30;99.90;;;;;;5059880;22;20238;-86
2021/01/12 18:09:59;;;;;;;8.03;3.03;;;5.40;99.90;;;;;;5018992;28;20202;-86
2021/01/12 18:12:34;;;;;;;7.10;3.53;;;5.30;99.90;;;;;;5018039;28;20188;-85
2021/01/12 18:17:36;;;;;;;8.80;3.50;;;5.30;99.90;;;;;;4989299;28;20261;-85
2021/01/12 18:20:13;;;;;;;9.00;3.33;;;5.50;99.90;;;;;;5161939;23;20251;-85
2021/01/12 18:22:50;;;;;;;7.93;3.07;;;5.40;99.90;;;;;;5025172;23;20239;-86
2021/01/12 18:25:26;;;;;;;9.87;3.57;;;5.40;99.90;;;;;;5020669;22;20554;-85
2021/01/12 18:27:58;;;;;;;7.47;4.30;;;5.50;99.90;;;;;;5042790;23;20236;-85
2021/01/12 18:36:13;;;;;;;8.83;3.57;;;5.30;99.90;;;;;;5016944;28;20224;-86
2021/01/12 18:44:22;;;;;;;8.93;3.27;;;5.30;99.90;;;;;;4996832;26;20279;-85
2021/01/12 18:46:53;;;;;;;9.03;3.07;;;5.30;99.90;;;;;;4998597;28;20213;-85
2021/01/12 18:49:50;;;;;;;10.43;2.77;;;5.40;99.90;;;;;;4998939;28;20197;-86
2021/01/12 19:00:21;;;;;;;9.87;3.50;;;5.10;99.90;;;;;;5039988;22;20243;-86
2021/01/12 19:03:13;;;;;;;11.37;3.70;;;5.10;99.90;;;;;;5021148;23;20262;-85
2021/01/12 19:06:26;;;;;;;8.20;3.70;;;5.20;99.90;;;;;;5015917;28;20442;-85
2021/01/12 19:09:06;;;;;;;8.00;3.27;;;5.20;99.90;;;;;;5015797;28;20453;-85
2021/01/12 19:11:38;;;;;;;10.97;3.80;;;5.20;99.90;;;;;;5012571;28;20458;-85
2021/01/12 19:14:10;;;;;;;10.37;3.63;;;5.20;99.90;;;;;;5013741;28;20510;-85
2021/01/12 19:16:51;;;;;;;6.03;3.40;;;5.00;99.90;;;;;;5016134;28;20474;-85
2021/01/12 19:19:26;;;;;;;9.60;3.53;;;5.00;99.90;;;;;;5016566;28;20474;-85
2021/01/12 19:22:22;;;;;;;6.77;4.03;;;5.20;99.90;;;;;;5060827;22;20409;-85
2021/01/12 19:25:21;;;;;;;6.53;3.73;;;5.10;99.90;;;;;;5017021;23;20482;-86
2021/01/12 19:27:55;;;;;;;13.10;4.17;;;5.20;99.90;;;;;;5016257;28;20558;-85
2021/01/12 19:30:47;;;;;;;9.93;3.60;;;4.90;99.90;;;;;;5017316;28;20433;-85
2021/01/12 19:40:24;;;;;;;11.97;4.87;;;5.10;99.90;;;;;;5025256;23;20512;-84
2021/01/12 19:43:08;;;;;;;8.17;3.77;;;5.10;99.90;;;;;;4996909;28;20450;-85
2021/01/12 19:45:46;;;;;;;9.80;3.70;;;5.10;99.90;;;;;;5001285;23;20469;-85
2021/01/12 19:48:16;;;;;;;6.60;3.80;;;4.80;99.90;;;;;;5000084;28;20466;-86
2021/01/12 19:51:18;;;;;;;10.10;4.00;;;4.80;99.90;;;;;;5032515;23;20493;-86
2021/01/12 19:54:03;;;;;;;21.07;5.00;;;4.60;99.90;;;;;;5013960;28;20497;-86
2021/01/12 20:00:22;;;;;;;13.97;4.60;;;4.40;99.90;;;;;;4977933;28;20502;-86
2021/01/12 20:03:34;;;;;;;12.00;5.33;;;4.30;99.90;;;;;;4977731;28;20511;-85
2021/01/12 20:06:24;;;;;;;10.33;4.80;;;4.50;99.90;;;;;;5029751;22;20548;-86
2021/01/12 20:09:46;;;;;;;10.60;6.07;;;4.50;99.90;;;;;;5067681;23;20504;-84
2021/01/12 20:12:45;;;;;;;10.40;5.00;;;4.40;99.90;;;;;;4997130;28;20438;-85
2021/01/12 20:15:33;;;;;;;13.23;4.77;;;4.50;99.90;;;;;;4996847;28;20199;-85
2021/01/12 20:18:38;;;;;;;10.57;4.70;;;4.70;99.90;;;;;;4996320;28;20485;-85
2021/01/12 20:21:35;;;;;;;12.20;4.87;;;4.80;99.90;;;;;;4997071;28;20526;-85
2021/01/12 20:24:58;;;;;;;9.17;5.00;;;4.70;99.90;;;;;;5002574;23;20498;-85
2021/01/12 20:27:33;;;;;;;16.17;4.27;;;4.60;99.90;;;;;;5022902;23;20497;-85
2021/01/12 20:30:15;;;;;;;11.43;4.53;;;4.80;99.90;;;;;;5024618;22;20411;-85
2021/01/12 20:35:55;;;;;;;14.00;4.60;;;4.60;99.90;;;;;;5064422;23;20522;-86
2021/01/12 20:38:27;;;;;;;8.77;4.27;;;4.50;99.90;;;;;;5015450;28;20541;-86
2021/01/12 20:41:13;;;;;;;14.73;5.57;;;4.70;99.90;;;;;;5015313;28;20438;-86
2021/01/12 20:43:51;;;;;;;10.43;4.70;;;4.70;99.90;;;;;;5015834;28;20236;-85
2021/01/12 20:46:22;;;;;;;11.53;4.47;;;4.90;99.90;;;;;;5044525;22;20525;-85
2021/01/12 20:49:28;;;;;;;9.77;4.47;;;4.90;99.90;;;;;;5015467;28;20458;-84
2021/01/12 20:58:42;;;;;;;14.90;4.73;;;4.70;99.90;;;;;;5015478;28;20486;-86
2021/01/12 21:01:11;;;;;;;10.03;3.90;;;4.70;99.90;;;;;;5015985;28;20454;-86
2021/01/12 21:03:38;;;;;;;13.33;4.17;;;4.70;99.90;;;;;;5015514;28;20454;-85
2021/01/12 21:11:13;;;;;;;8.93;4.03;;;4.30;99.90;;;;;;5014659;28;20485;-85
2021/01/12 21:13:55;;;;;;;8.63;4.27;;;4.30;99.90;;;;;;5016020;28;20443;-85
2021/01/12 21:16:28;;;;;;;13.60;5.03;;;4.40;99.90;;;;;;5066584;23;20550;-86
2021/01/12 21:19:23;;;;;;;8.60;4.23;;;4.50;99.90;;;;;;4999158;28;20561;-85
2021/01/12 21:21:55;;;;;;;12.90;4.50;;;4.50;99.90;;;;;;5015660;28;20462;-85
2021/01/12 21:24:41;;;;;;;9.63;4.23;;;4.50;99.90;;;;;;5016057;28;20474;-86
2021/01/12 21:27:22;;;;;;;12.37;4.00;;;4.40;99.90;;;;;;5015747;28;20473;-86
2021/01/12 21:29:50;;;;;;;13.47;3.87;;;4.20;99.90;;;;;;5015842;28;20450;-85
2021/01/12 21:32:22;;;;;;;13.60;4.37;;;4.40;99.90;;;;;;5016505;28;20525;-85
2021/01/12 21:38:25;;;;;;;11.63;4.60;;;4.30;99.90;;;;;;5041265;23;20576;-84
2021/01/12 21:40:57;;;;;;;11.47;3.57;;;4.10;99.90;;;;;;5019754;28;20485;-85
2021/01/12 21:43:33;;;;;;;11.63;4.27;;;4.20;99.90;;;;;;5018047;28;20469;-86
2021/01/12 21:46:03;;;;;;;10.67;3.77;;;4.40;99.90;;;;;;5039716;22;20497;-85
